Time;durP1;ratioP1;P1;durP2;ratioP2;P2;SDS_P1;SDS_P2;PMS_P1;PMS_P2;Temp;Humidity;BMP_temperature;BMP_pressure;BME280_temperature;BME280_humidity;BME280_pressure;Samples;Min_cycle;Max_cycle;Signal;HPM_P1;HPM_P2
2021/12/08 00:01:42;;;;;;;8.25;2.83;;;;;;;;;;5037057;28;20029;-60
2021/12/08 00:04:08;;;;;;;9.60;2.95;;;;;;;;;;5035950;28;20119;-59
2021/12/08 00:06:36;;;;;;;4.63;2.47;;;;;;;;;;5034554;28;20090;-59
2021/12/08 00:14:31;;;;;;;7.53;2.63;;;;;;;;;;5026135;28;20492;-59
2021/12/08 00:16:57;;;;;;;7.28;3.15;;;;;;;;;;5034874;28;20024;-58
2021/12/08 00:19:23;;;;;;;10.65;3.53;;;;;;;;;;5036613;28;20472;-59
2021/12/08 00:21:53;;;;;;;9.73;3.50;;;;;;;;;;5032731;28;20028;-57
2021/12/08 00:24:19;;;;;;;17.05;3.47;;;;;;;;;;5033913;28;20048;-59
2021/12/08 00:26:44;;;;;;;7.32;2.80;;;;;;;;;;5034578;28;20025;-59
2021/12/08 00:29:12;;;;;;;4.47;2.30;;;;;;;;;;5021546;28;20778;-58
2021/12/08 00:53:11;;;;;;;7.97;3.20;;;;;;;;;;5023041;28;20031;-58
2021/12/08 00:55:43;;;;;;;8.45;3.67;;;;;;;;;;5012267;28;20057;-59
2021/12/08 00:58:11;;;;;;;14.10;3.92;;;;;;;;;;5031310;28;20033;-59
2021/12/08 01:00:41;;;;;;;8.82;4.13;;;;;;;;;;5030947;28;20051;-58
2021/12/08 01:03:10;;;;;;;10.88;4.63;;;;;;;;;;5032300;28;20025;-59
2021/12/08 01:05:46;;;;;;;6.25;3.72;;;;;;;;;;5032707;28;20760;-58
2021/12/08 01:08:15;;;;;;;13.30;5.15;;;;;;;;;;5032125;28;20039;-58
2021/12/08 01:10:43;;;;;;;18.00;4.53;;;;;;;;;;5015457;28;20037;-59
2021/12/08 01:13:14;;;;;;;5.28;2.88;;;;;;;;;;5031621;28;20029;-57
2021/12/08 01:15:48;;;;;;;9.23;3.67;;;;;;;;;;5032195;28;20036;-58
2021/12/08 01:18:17;;;;;;;7.85;3.95;;;;;;;;;;5035119;28;20029;-57
2021/12/08 01:20:45;;;;;;;10.68;4.28;;;;;;;;;;5048267;28;20044;-57
2021/12/08 01:23:14;;;;;;;7.32;3.72;;;;;;;;;;5033783;28;20036;-58
2021/12/08 01:25:39;;;;;;;11.68;3.22;;;;;;;;;;5032980;28;20028;-58
2021/12/08 01:28:09;;;;;;;6.30;3.60;;;;;;;;;;5032359;28;20037;-58
2021/12/08 01:30:38;;;;;;;12.57;3.90;;;;;;;;;;5032283;28;20037;-58
2021/12/08 01:33:06;;;;;;;9.27;3.55;;;;;;;;;;5033332;28;20035;-57
2021/12/08 01:35:31;;;;;;;18.60;4.40;;;;;;;;;;5016650;28;20118;-58
2021/12/08 01:37:57;;;;;;;13.63;3.38;;;;;;;;;;5033581;28;20115;-57
2021/12/08 01:40:23;;;;;;;12.27;3.67;;;;;;;;;;5033207;28;20589;-57
2021/12/08 01:42:53;;;;;;;7.90;3.20;;;;;;;;;;5037359;28;20441;-59
2021/12/08 01:48:07;;;;;;;4.47;2.75;;;;;;;;;;5035282;28;20036;-58
2021/12/08 01:50:35;;;;;;;9.40;3.83;;;;;;;;;;5037721;28;20029;-58
2021/12/08 01:53:02;;;;;;;5.07;3.00;;;;;;;;;;5037526;28;20115;-57
2021/12/08 01:55:30;;;;;;;10.38;4.07;;;;;;;;;;5034233;28;20440;-59
2021/12/08 01:57:58;;;;;;;8.85;3.45;;;;;;;;;;5033924;28;20123;-57
2021/12/08 02:00:34;;;;;;;10.00;2.92;;;;;;;;;;5034845;28;20025;-58
2021/12/08 02:03:03;;;;;;;6.15;3.80;;;;;;;;;;5050745;28;20236;-58
2021/12/08 02:05:29;;;;;;;11.43;3.72;;;;;;;;;;5049253;28;20064;-58
2021/12/08 02:07:54;;;;;;;10.00;4.28;;;;;;;;;;5034650;28;20080;-60
2021/12/08 02:10:23;;;;;;;6.78;3.42;;;;;;;;;;5036129;28;20037;-58
2021/12/08 02:12:48;;;;;;;8.40;3.50;;;;;;;;;;5034360;28;20037;-57
2021/12/08 02:15:20;;;;;;;8.45;3.80;;;;;;;;;;5033797;28;20040;-57
2021/12/08 02:17:50;;;;;;;11.18;4.45;;;;;;;;;;5034678;28;20037;-58
2021/12/08 02:20:16;;;;;;;8.68;4.03;;;;;;;;;;5050930;28;20035;-58
2021/12/08 02:22:42;;;;;;;7.35;3.70;;;;;;;;;;5025150;28;20408;-59
2021/12/08 02:25:09;;;;;;;11.32;4.80;;;;;;;;;;5034586;28;20062;-59
2021/12/08 02:27:36;;;;;;;11.95;4.40;;;;;;;;;;5034178;28;20064;-59
2021/12/08 02:30:21;;;;;;;7.45;3.83;;;;;;;;;;5036116;28;20176;-58
2021/12/08 02:49:14;;;;;;;6.95;4.00;;;;;;;;;;5038079;28;20115;-59
2021/12/08 02:51:43;;;;;;;9.52;4.43;;;;;;;;;;5035140;28;21996;-60
2021/12/08 02:54:08;;;;;;;5.85;3.85;;;;;;;;;;5034730;28;20043;-59
2021/12/08 02:56:43;;;;;;;8.07;3.58;;;;;;;;;;5033217;28;20049;-58
2021/12/08 02:59:09;;;;;;;4.55;3.38;;;;;;;;;;5033961;28;20971;-59
2021/12/08 03:01:37;;;;;;;13.48;4.35;;;;;;;;;;5041286;28;20044;-59
2021/12/08 03:04:03;;;;;;;9.20;4.20;;;;;;;;;;5034533;28;20029;-60
2021/12/08 03:06:31;;;;;;;6.47;4.03;;;;;;;;;;5031752;28;20487;-57
2021/12/08 03:08:56;;;;;;;12.20;4.40;;;;;;;;;;5050557;28;20106;-59
2021/12/08 03:11:22;;;;;;;8.07;4.15;;;;;;;;;;5034809;28;20159;-59
2021/12/08 03:14:00;;;;;;;7.32;4.38;;;;;;;;;;5032283;28;20031;-58
2021/12/08 03:16:28;;;;;;;7.88;3.85;;;;;;;;;;5033572;28;20489;-59
2021/12/08 03:18:54;;;;;;;5.35;3.60;;;;;;;;;;5035436;28;20032;-60
2021/12/08 03:21:26;;;;;;;9.02;4.53;;;;;;;;;;5030571;28;20040;-60
2021/12/08 03:24:14;;;;;;;7.68;4.28;;;;;;;;;;5036311;28;20380;-59
2021/12/08 03:26:49;;;;;;;7.38;4.20;;;;;;;;;;5023412;28;20032;-59
2021/12/08 03:29:27;;;;;;;10.27;4.10;;;;;;;;;;5037106;28;20770;-60
2021/12/08 03:32:04;;;;;;;11.30;4.93;;;;;;;;;;5037362;28;20033;-60
2021/12/08 03:34:36;;;;;;;9.63;5.72;;;;;;;;;;5038061;28;20128;-58
2021/12/08 03:37:02;;;;;;;7.40;4.40;;;;;;;;;;5035519;28;20028;-60
2021/12/08 03:39:38;;;;;;;8.93;5.13;;;;;;;;;;5035285;28;20192;-58
2021/12/08 03:42:04;;;;;;;9.52;5.50;;;;;;;;;;5045972;28;22010;-57
2021/12/08 03:44:36;;;;;;;7.82;5.07;;;;;;;;;;5034674;28;20579;-59
2021/12/08 03:47:13;;;;;;;12.82;5.35;;;;;;;;;;5030186;28;20492;-60
2021/12/08 03:49:39;;;;;;;12.88;5.55;;;;;;;;;;5033788;28;20028;-61
2021/12/08 03:52:05;;;;;;;7.13;4.25;;;;;;;;;;5040279;28;20042;-59
2021/12/08 03:54:33;;;;;;;13.25;6.25;;;;;;;;;;5032158;28;20175;-59
2021/12/08 03:57:01;;;;;;;11.38;6.03;;;;;;;;;;5032781;28;20045;-59
2021/12/08 03:59:27;;;;;;;13.68;6.60;;;;;;;;;;5034447;28;20480;-59
2021/12/08 04:01:53;;;;;;;10.55;6.53;;;;;;;;;;5032761;28;20031;-58
2021/12/08 04:04:18;;;;;;;16.35;7.00;;;;;;;;;;5047877;28;20140;-60
2021/12/08 04:06:50;;;;;;;14.23;6.10;;;;;;;;;;5029897;28;20410;-58
2021/12/08 04:09:25;;;;;;;12.63;6.20;;;;;;;;;;5032630;28;20423;-59
2021/12/08 04:11:56;;;;;;;10.20;6.00;;;;;;;;;;5014399;28;20057;-60
2021/12/08 04:14:23;;;;;;;14.15;6.80;;;;;;;;;;5012657;28;20033;-60
2021/12/08 04:16:53;;;;;;;11.27;7.13;;;;;;;;;;5032718;28;20025;-60
2021/12/08 04:19:20;;;;;;;16.05;6.97;;;;;;;;;;5031179;28;20036;-59
2021/12/08 04:21:50;;;;;;;15.05;6.65;;;;;;;;;;5046081;28;20181;-60
2021/12/08 04:24:18;;;;;;;15.43;8.75;;;;;;;;;;5030550;28;20612;-58
2021/12/08 04:27:09;;;;;;;15.13;7.25;;;;;;;;;;5031107;28;20089;-58
2021/12/08 04:29:40;;;;;;;14.20;7.57;;;;;;;;;;5031500;28;20083;-58
2021/12/08 04:32:08;;;;;;;17.17;7.85;;;;;;;;;;5034004;28;20025;-59
2021/12/08 04:34:40;;;;;;;14.10;7.55;;;;;;;;;;5033210;28;20052;-58
2021/12/08 04:37:17;;;;;;;19.77;7.63;;;;;;;;;;5035620;28;20069;-60
2021/12/08 04:42:40;;;;;;;15.73;7.97;;;;;;;;;;5031308;28;20042;-59
2021/12/08 04:45:18;;;;;;;17.20;8.20;;;;;;;;;;5033072;28;20942;-58
2021/12/08 04:48:08;;;;;;;15.07;8.52;;;;;;;;;;5032484;28;20032;-58
2021/12/08 05:07:53;;;;;;;14.20;8.38;;;;;;;;;;5033595;28;19912;-60
2021/12/08 05:10:22;;;;;;;17.27;8.50;;;;;;;;;;5031941;28;20036;-60
2021/12/08 05:12:51;;;;;;;18.13;9.13;;;;;;;;;;5032494;28;20601;-60
2021/12/08 05:15:24;;;;;;;14.15;8.45;;;;;;;;;;5029245;28;20033;-60
2021/12/08 05:18:20;;;;;;;16.77;8.73;;;;;;;;;;5037142;28;20752;-60
2021/12/08 05:21:24;;;;;;;18.55;8.50;;;;;;;;;;5038502;28;20421;-60
2021/12/08 05:23:49;;;;;;;15.27;8.23;;;;;;;;;;5023517;28;20037;-60
2021/12/08 05:26:27;;;;;;;18.00;9.23;;;;;;;;;;5021614;28;20086;-60
2021/12/08 05:28:59;;;;;;;14.82;8.13;;;;;;;;;;5017329;28;20397;-61
2021/12/08 05:31:31;;;;;;;18.63;8.50;;;;;;;;;;5035895;28;20033;-59
2021/12/08 05:33:57;;;;;;;15.90;8.38;;;;;;;;;;5034950;28;20036;-59
2021/12/08 05:36:23;;;;;;;18.40;7.93;;;;;;;;;;5035384;28;20036;-60
2021/12/08 05:38:50;;;;;;;16.60;8.13;;;;;;;;;;5039459;28;20057;-59
2021/12/08 05:41:29;;;;;;;16.92;8.32;;;;;;;;;;5039872;28;20128;-60
2021/12/08 05:43:57;;;;;;;21.60;8.75;;;;;;;;;;5024577;28;20028;-60
2021/12/08 05:46:30;;;;;;;13.90;7.88;;;;;;;;;;5036217;28;22250;-60
2021/12/08 05:49:03;;;;;;;14.65;7.55;;;;;;;;;;5035412;28;20036;-59
2021/12/08 05:51:31;;;;;;;19.13;8.80;;;;;;;;;;5036672;28;20029;-61
2021/12/08 05:54:01;;;;;;;15.00;7.82;;;;;;;;;;5039585;28;20081;-61
2021/12/08 05:56:29;;;;;;;18.95;7.82;;;;;;;;;;5041196;28;20048;-61
2021/12/08 05:58:57;;;;;;;17.45;7.88;;;;;;;;;;5039508;28;20071;-61
2021/12/08 06:01:32;;;;;;;15.25;6.95;;;;;;;;;;5036858;28;20033;-60
2021/12/08 06:03:58;;;;;;;18.17;7.85;;;;;;;;;;5033655;28;20029;-61
2021/12/08 06:06:27;;;;;;;12.60;6.97;;;;;;;;;;5038446;28;20033;-60
2021/12/08 06:08:55;;;;;;;13.38;7.38;;;;;;;;;;5037082;28;21110;-59
2021/12/08 06:11:23;;;;;;;15.20;6.80;;;;;;;;;;5042873;28;20512;-59
2021/12/08 06:13:48;;;;;;;15.60;7.28;;;;;;;;;;5040421;28;20036;-61
2021/12/08 06:16:15;;;;;;;10.45;7.03;;;;;;;;;;5017890;28;20055;-61
2021/12/08 06:18:42;;;;;;;21.60;7.82;;;;;;;;;;5036370;28;20078;-60
2021/12/08 06:21:12;;;;;;;12.98;7.63;;;;;;;;;;5033965;28;20668;-60
2021/12/08 06:23:41;;;;;;;13.32;6.55;;;;;;;;;;5035991;28;20032;-61
2021/12/08 06:26:13;;;;;;;14.68;6.75;;;;;;;;;;5034072;28;20032;-60
2021/12/08 06:28:41;;;;;;;11.95;7.43;;;;;;;;;;5033150;28;20982;-61
2021/12/08 06:31:08;;;;;;;14.07;6.55;;;;;;;;;;5034632;28;20033;-59
2021/12/08 06:33:37;;;;;;;16.92;6.85;;;;;;;;;;5036629;28;20041;-60
2021/12/08 06:36:10;;;;;;;14.45;7.43;;;;;;;;;;5034706;28;20024;-61
2021/12/08 06:38:41;;;;;;;11.35;6.95;;;;;;;;;;5033759;28;20033;-61
2021/12/08 06:41:13;;;;;;;15.60;7.28;;;;;;;;;;5032004;28;20020;-60
2021/12/08 06:43:40;;;;;;;11.88;6.00;;;;;;;;;;5052582;28;20183;-60
2021/12/08 06:46:06;;;;;;;11.75;6.50;;;;;;;;;;5034864;28;20035;-60
2021/12/08 06:48:39;;;;;;;18.33;6.93;;;;;;;;;;5034820;28;20033;-61
2021/12/08 06:51:16;;;;;;;14.68;6.60;;;;;;;;;;5034898;28;20048;-60
2021/12/08 06:53:45;;;;;;;15.20;5.93;;;;;;;;;;5017794;28;20147;-62
2021/12/08 06:56:18;;;;;;;11.10;6.90;;;;;;;;;;5033163;28;20049;-62
2021/12/08 06:58:47;;;;;;;15.70;6.00;;;;;;;;;;5033115;28;20039;-61
2021/12/08 07:01:58;;;;;;;22.90;6.55;;;;;;;;;;5023396;28;20017;-61
2021/12/08 07:04:33;;;;;;;9.45;5.47;;;;;;;;;;5038990;28;20082;-61
2021/12/08 07:07:01;;;;;;;11.63;5.15;;;;;;;;;;5035965;28;20747;-61
2021/12/08 07:09:27;;;;;;;11.65;5.68;;;;;;;;;;5037292;28;20043;-62
2021/12/08 07:11:56;;;;;;;12.93;5.13;;;;;;;;;;5036131;28;20108;-61
2021/12/08 07:14:25;;;;;;;10.40;5.38;;;;;;;;;;5033654;28;20073;-61
2021/12/08 07:16:52;;;;;;;10.70;5.22;;;;;;;;;;5018116;28;20260;-61
2021/12/08 07:19:35;;;;;;;11.43;5.63;;;;;;;;;;5030475;28;20017;-61
2021/12/08 07:22:07;;;;;;;13.45;5.90;;;;;;;;;;5032537;28;20966;-62
2021/12/08 07:24:38;;;;;;;14.55;5.80;;;;;;;;;;5031758;28;20033;-62
2021/12/08 07:27:09;;;;;;;15.82;5.15;;;;;;;;;;5050399;28;20068;-60
2021/12/08 07:29:39;;;;;;;12.23;5.22;;;;;;;;;;5037215;28;20037;-60
2021/12/08 07:32:10;;;;;;;11.65;4.80;;;;;;;;;;5034313;28;20028;-62
2021/12/08 07:34:40;;;;;;;10.27;5.50;;;;;;;;;;5041144;28;20130;-62
2021/12/08 07:37:13;;;;;;;10.30;5.50;;;;;;;;;;5036733;28;21963;-62
2021/12/08 07:39:47;;;;;;;12.70;5.35;;;;;;;;;;5035898;28;20064;-63
2021/12/08 07:42:25;;;;;;;11.02;4.53;;;;;;;;;;5034611;28;20033;-62
2021/12/08 07:45:00;;;;;;;13.75;5.40;;;;;;;;;;5045535;28;22132;-61
2021/12/08 07:47:28;;;;;;;10.38;4.80;;;;;;;;;;5034343;28;20623;-63
2021/12/08 07:50:01;;;;;;;11.13;4.15;;;;;;;;;;5032588;28;20783;-64
2021/12/08 07:52:30;;;;;;;14.50;5.18;;;;;;;;;;5036480;28;20040;-62
2021/12/08 07:54:56;;;;;;;12.30;3.80;;;;;;;;;;5050371;28;20032;-64
2021/12/08 07:57:29;;;;;;;6.18;4.22;;;;;;;;;;5033316;28;20747;-64
2021/12/08 07:59:58;;;;;;;10.82;3.67;;;;;;;;;;5034514;28;20028;-63
2021/12/08 08:02:25;;;;;;;7.13;3.67;;;;;;;;;;5016349;28;20025;-62
2021/12/08 08:04:52;;;;;;;11.02;3.38;;;;;;;;;;5034948;28;20029;-64
2021/12/08 08:07:19;;;;;;;7.97;3.53;;;;;;;;;;5033792;28;20032;-64
2021/12/08 08:09:53;;;;;;;11.02;3.45;;;;;;;;;;5032974;28;20047;-65
2021/12/08 08:12:20;;;;;;;11.70;3.25;;;;;;;;;;5039653;28;20029;-64
2021/12/08 08:14:51;;;;;;;9.57;3.05;;;;;;;;;;5047441;28;20116;-64
2021/12/08 08:17:26;;;;;;;8.88;2.22;;;;;;;;;;5034403;28;20033;-59
2021/12/08 08:19:55;;;;;;;5.80;2.97;;;;;;;;;;5050402;28;20029;-63
2021/12/08 08:22:27;;;;;;;14.02;2.72;;;;;;;;;;5046870;28;20028;-63
2021/12/08 08:24:54;;;;;;;6.78;2.90;;;;;;;;;;5035805;28;20085;-65
2021/12/08 08:27:20;;;;;;;3.13;1.95;;;;;;;;;;5034641;28;20100;-63
2021/12/08 08:29:48;;;;;;;6.57;2.70;;;;;;;;;;5033218;28;20033;-64
2021/12/08 08:32:24;;;;;;;4.63;2.50;;;;;;;;;;5032430;28;20029;-63
2021/12/08 08:34:55;;;;;;;8.13;2.47;;;;;;;;;;5031788;28;20167;-65
2021/12/08 08:37:23;;;;;;;5.72;3.03;;;;;;;;;;5033158;28;21796;-63
2021/12/08 08:39:58;;;;;;;8.73;2.17;;;;;;;;;;5036245;28;21924;-65
2021/12/08 08:42:28;;;;;;;7.22;2.53;;;;;;;;;;5015702;28;20086;-62
2021/12/08 08:44:59;;;;;;;4.60;2.53;;;;;;;;;;5039674;28;20056;-62
2021/12/08 08:47:26;;;;;;;6.25;2.22;;;;;;;;;;5033042;28;20029;-65
2021/12/08 08:49:58;;;;;;;3.30;1.98;;;;;;;;;;5036000;28;20023;-64
2021/12/08 08:52:28;;;;;;;5.83;2.00;;;;;;;;;;5034958;28;20024;-63
2021/12/08 08:54:59;;;;;;;11.10;2.97;;;;;;;;;;5048248;28;20029;-65
2021/12/08 08:57:33;;;;;;;3.88;2.17;;;;;;;;;;5033076;28;20049;-64
2021/12/08 09:00:08;;;;;;;2.53;1.70;;;;;;;;;;5048408;28;20116;-64
2021/12/08 09:02:38;;;;;;;9.27;2.30;;;;;;;;;;5020769;28;20028;-65
2021/12/08 09:05:11;;;;;;;3.45;1.83;;;;;;;;;;5036548;28;20028;-66
2021/12/08 09:07:43;;;;;;;5.97;1.60;;;;;;;;;;5048713;28;20531;-64
2021/12/08 09:10:16;;;;;;;10.48;2.17;;;;;;;;;;5035084;28;20155;-66
2021/12/08 09:12:50;;;;;;;7.03;2.00;;;;;;;;;;5047155;28;20028;-67
2021/12/08 09:15:25;;;;;;;5.35;2.00;;;;;;;;;;5033364;28;20036;-64
2021/12/08 09:17:59;;;;;;;4.57;1.63;;;;;;;;;;5037484;28;20037;-66
2021/12/08 09:20:29;;;;;;;10.63;1.60;;;;;;;;;;5018828;28;20399;-66
2021/12/08 09:23:07;;;;;;;11.43;1.58;;;;;;;;;;5050187;28;20717;-66
2021/12/08 09:25:44;;;;;;;14.88;2.40;;;;;;;;;;5043648;28;20044;-65
2021/12/08 09:28:16;;;;;;;9.98;1.90;;;;;;;;;;5030688;28;20129;-67
2021/12/08 09:30:46;;;;;;;4.82;1.30;;;;;;;;;;5030350;28;20456;-64
2021/12/08 09:33:19;;;;;;;3.72;1.70;;;;;;;;;;5029111;28;20036;-67
2021/12/08 09:35:51;;;;;;;3.00;1.50;;;;;;;;;;5032521;28;20707;-67
2021/12/08 09:38:28;;;;;;;9.48;2.15;;;;;;;;;;5031913;28;21446;-68
2021/12/08 09:41:05;;;;;;;6.68;1.98;;;;;;;;;;5035900;28;20033;-68
2021/12/08 09:43:41;;;;;;;13.10;1.85;;;;;;;;;;5029378;28;20033;-66
2021/12/08 09:46:11;;;;;;;7.68;1.75;;;;;;;;;;5026994;28;20074;-66
2021/12/08 09:48:38;;;;;;;7.53;1.10;;;;;;;;;;5033936;28;20243;-65
2021/12/08 09:51:08;;;;;;;8.48;1.75;;;;;;;;;;5047059;28;20752;-68
2021/12/08 09:53:37;;;;;;;7.75;1.80;;;;;;;;;;5034385;28;20069;-70
2021/12/08 09:56:05;;;;;;;9.48;1.60;;;;;;;;;;5030305;28;20068;-67
2021/12/08 09:58:37;;;;;;;11.95;1.98;;;;;;;;;;5032232;28;20314;-70
2021/12/08 10:01:07;;;;;;;10.43;2.25;;;;;;;;;;5032237;28;20028;-68
2021/12/08 10:03:33;;;;;;;10.43;1.83;;;;;;;;;;5038372;28;20024;-70
2021/12/08 10:06:01;;;;;;;10.02;1.92;;;;;;;;;;5041031;28;20056;-69
2021/12/08 10:08:32;;;;;;;10.48;1.70;;;;;;;;;;5039305;28;20039;-70
2021/12/08 10:11:00;;;;;;;10.02;2.00;;;;;;;;;;5043679;28;20554;-68
2021/12/08 10:13:26;;;;;;;8.02;1.83;;;;;;;;;;5035588;28;20090;-68
2021/12/08 10:15:52;;;;;;;8.93;1.70;;;;;;;;;;5042019;28;20040;-69
2021/12/08 10:18:20;;;;;;;4.60;2.03;;;;;;;;;;5038034;28;21003;-70
2021/12/08 10:20:52;;;;;;;4.43;1.42;;;;;;;;;;5037437;28;20053;-70
2021/12/08 10:23:20;;;;;;;6.25;1.70;;;;;;;;;;5037849;28;20021;-73
2021/12/08 10:25:48;;;;;;;17.40;2.55;;;;;;;;;;5036951;28;20061;-69
2021/12/08 10:28:18;;;;;;;12.38;1.80;;;;;;;;;;5032310;28;20032;-71
2021/12/08 10:30:46;;;;;;;6.43;1.85;;;;;;;;;;5017021;28;20028;-70
2021/12/08 10:33:36;;;;;;;6.28;2.03;;;;;;;;;;5036036;28;20051;-70
2021/12/08 10:36:18;;;;;;;9.32;1.95;;;;;;;;;;5033588;28;20036;-66
2021/12/08 10:38:43;;;;;;;6.82;2.15;;;;;;;;;;5040694;28;20040;-72
2021/12/08 10:41:13;;;;;;;4.60;2.15;;;;;;;;;;5049846;28;20047;-73
2021/12/08 10:43:58;;;;;;;8.95;1.50;;;;;;;;;;5022775;28;20029;-68
2021/12/08 10:46:34;;;;;;;6.03;1.88;;;;;;;;;;5037622;28;20033;-70
2021/12/08 10:49:15;;;;;;;15.30;2.38;;;;;;;;;;5034675;28;20180;-72
2021/12/08 10:54:31;;;;;;;8.32;1.98;;;;;;;;;;5035360;28;20160;-68
2021/12/08 10:56:58;;;;;;;6.88;2.92;;;;;;;;;;5035232;28;20041;-70
2021/12/08 10:59:27;;;;;;;12.27;2.30;;;;;;;;;;5036791;28;20033;-70
2021/12/08 11:01:53;;;;;;;9.25;2.03;;;;;;;;;;5030616;28;20043;-74
2021/12/08 11:04:31;;;;;;;10.43;2.08;;;;;;;;;;5036774;28;20037;-71
2021/12/08 11:07:03;;;;;;;5.03;1.50;;;;;;;;;;5033468;28;20051;-72
2021/12/08 11:09:39;;;;;;;11.90;1.95;;;;;;;;;;5035015;28;20063;-71
2021/12/08 11:12:06;;;;;;;13.57;1.60;;;;;;;;;;5015727;28;20032;-73
2021/12/08 11:14:42;;;;;;;10.38;1.67;;;;;;;;;;5035175;28;20028;-73
2021/12/08 11:17:23;;;;;;;3.63;1.70;;;;;;;;;;5020873;28;20033;-70
2021/12/08 11:19:51;;;;;;;10.23;2.25;;;;;;;;;;5037832;28;20116;-71
2021/12/08 11:22:28;;;;;;;4.18;1.70;;;;;;;;;;5036486;28;20040;-73
2021/12/08 11:25:00;;;;;;;7.88;1.83;;;;;;;;;;5036184;28;20119;-74
2021/12/08 11:27:30;;;;;;;6.25;1.95;;;;;;;;;;5018663;28;20715;-72
2021/12/08 11:29:56;;;;;;;6.43;1.60;;;;;;;;;;5036767;28;20110;-72
2021/12/08 11:32:26;;;;;;;5.25;1.83;;;;;;;;;;5024725;28;20028;-75
2021/12/08 11:34:59;;;;;;;7.57;1.63;;;;;;;;;;5038047;28;20060;-73
2021/12/08 11:37:32;;;;;;;5.57;1.60;;;;;;;;;;5025561;28;20036;-72
2021/12/08 11:40:01;;;;;;;5.80;1.85;;;;;;;;;;5033452;28;20139;-75
2021/12/08 11:42:29;;;;;;;9.00;2.45;;;;;;;;;;5020544;28;20483;-71
2021/12/08 11:45:02;;;;;;;3.25;1.30;;;;;;;;;;5030832;28;20038;-73
2021/12/08 11:47:34;;;;;;;6.32;1.00;;;;;;;;;;5035246;28;20039;-73
2021/12/08 11:50:09;;;;;;;8.60;1.33;;;;;;;;;;5031964;28;20086;-71
2021/12/08 11:52:37;;;;;;;4.90;1.85;;;;;;;;;;5035606;28;21099;-69
2021/12/08 11:55:06;;;;;;;7.03;1.83;;;;;;;;;;5032035;28;20036;-69
2021/12/08 11:57:40;;;;;;;10.13;1.52;;;;;;;;;;5046926;28;22226;-72
2021/12/08 12:00:18;;;;;;;7.28;1.35;;;;;;;;;;5031572;28;20025;-74
2021/12/08 12:03:15;;;;;;;8.85;1.80;;;;;;;;;;5033434;28;20025;-72
2021/12/08 12:05:45;;;;;;;3.92;1.90;;;;;;;;;;5046090;28;20090;-71
2021/12/08 12:08:15;;;;;;;6.57;1.67;;;;;;;;;;5046198;28;20345;-69
2021/12/08 12:10:43;;;;;;;5.05;2.38;;;;;;;;;;5033233;28;20049;-67
2021/12/08 12:13:12;;;;;;;5.25;1.58;;;;;;;;;;5020372;28;20127;-69
2021/12/08 12:15:44;;;;;;;11.32;1.60;;;;;;;;;;5017015;28;20024;-69
2021/12/08 12:18:19;;;;;;;4.35;1.60;;;;;;;;;;5038132;28;20429;-71
2021/12/08 12:21:09;;;;;;;3.33;1.30;;;;;;;;;;5034273;28;20036;-70
2021/12/08 12:23:42;;;;;;;7.05;1.58;;;;;;;;;;5034756;28;20024;-70
2021/12/08 12:26:23;;;;;;;10.50;1.58;;;;;;;;;;5031856;28;20037;-68
2021/12/08 12:29:00;;;;;;;7.45;1.85;;;;;;;;;;5040384;28;20043;-69
2021/12/08 12:31:26;;;;;;;1.77;1.30;;;;;;;;;;5031453;28;20032;-69
2021/12/08 12:33:52;;;;;;;13.85;1.80;;;;;;;;;;5030254;28;20052;-71
2021/12/08 12:36:20;;;;;;;6.65;2.15;;;;;;;;;;5031606;28;22091;-69
2021/12/08 12:38:48;;;;;;;15.52;2.08;;;;;;;;;;5022073;28;20058;-72
2021/12/08 12:41:25;;;;;;;9.48;2.10;;;;;;;;;;5019575;28;20036;-68
2021/12/08 12:43:50;;;;;;;6.70;1.52;;;;;;;;;;5031201;28;20025;-69
2021/12/08 12:46:17;;;;;;;4.30;1.35;;;;;;;;;;5028604;28;20541;-72
2021/12/08 12:48:50;;;;;;;7.63;2.22;;;;;;;;;;5033907;28;20064;-65
2021/12/08 12:51:19;;;;;;;6.32;1.90;;;;;;;;;;5032484;28;20025;-69
2021/12/08 12:53:50;;;;;;;6.68;2.50;;;;;;;;;;5030928;28;20044;-70
2021/12/08 12:56:20;;;;;;;10.38;2.00;;;;;;;;;;5031952;28;20114;-66
2021/12/08 12:58:48;;;;;;;11.65;2.75;;;;;;;;;;5031032;28;20024;-68
2021/12/08 13:01:17;;;;;;;7.85;2.15;;;;;;;;;;5029628;28;21811;-70
2021/12/08 13:03:48;;;;;;;4.22;1.95;;;;;;;;;;5034821;28;20033;-74
2021/12/08 13:06:17;;;;;;;6.32;2.05;;;;;;;;;;5030345;28;20055;-69
2021/12/08 13:08:52;;;;;;;7.82;2.83;;;;;;;;;;5045117;28;20032;-72
2021/12/08 13:11:33;;;;;;;15.20;3.20;;;;;;;;;;5031667;28;20032;-71
2021/12/08 13:13:58;;;;;;;11.68;3.08;;;;;;;;;;5025931;28;20025;-70
2021/12/08 13:16:27;;;;;;;9.55;2.28;;;;;;;;;;5029570;28;20063;-69
2021/12/08 13:18:57;;;;;;;8.40;4.10;;;;;;;;;;5031368;28;20037;-70
2021/12/08 13:21:42;;;;;;;12.20;2.90;;;;;;;;;;5032237;28;20124;-71
2021/12/08 13:24:36;;;;;;;6.68;2.10;;;;;;;;;;5027276;28;20891;-68
2021/12/08 13:27:06;;;;;;;8.07;2.75;;;;;;;;;;5032781;28;20128;-70
2021/12/08 13:29:36;;;;;;;5.03;2.20;;;;;;;;;;5048143;28;20060;-69
2021/12/08 13:32:15;;;;;;;14.73;7.40;;;;;;;;;;5045049;28;20032;-70
2021/12/08 13:34:44;;;;;;;10.07;2.50;;;;;;;;;;5021010;28;20120;-69
2021/12/08 13:37:19;;;;;;;11.93;2.42;;;;;;;;;;5035266;28;20617;-72
2021/12/08 13:39:48;;;;;;;5.88;2.00;;;;;;;;;;5016984;28;20038;-68
2021/12/08 13:42:18;;;;;;;8.15;1.92;;;;;;;;;;5033189;28;20053;-69
2021/12/08 13:44:52;;;;;;;6.22;1.88;;;;;;;;;;5037316;28;20534;-71
2021/12/08 13:47:26;;;;;;;9.48;2.15;;;;;;;;;;5037960;28;20021;-72
2021/12/08 13:49:54;;;;;;;11.85;1.92;;;;;;;;;;5038862;28;20041;-68
2021/12/08 13:52:27;;;;;;;6.15;1.80;;;;;;;;;;5033258;28;20397;-68
2021/12/08 13:55:16;;;;;;;3.75;1.70;;;;;;;;;;5018616;28;20036;-69
2021/12/08 13:57:46;;;;;;;9.85;2.17;;;;;;;;;;5032650;28;20734;-70
2021/12/08 14:00:17;;;;;;;5.30;1.63;;;;;;;;;;5046060;28;20033;-70
2021/12/08 14:02:47;;;;;;;8.80;2.20;;;;;;;;;;5036086;28;21014;-68
2021/12/08 14:05:17;;;;;;;5.53;1.50;;;;;;;;;;5035863;28;20041;-70
2021/12/08 14:07:48;;;;;;;1.95;1.35;;;;;;;;;;5034510;28;20024;-71
2021/12/08 14:10:23;;;;;;;2.35;2.00;;;;;;;;;;5025012;28;20063;-72
2021/12/08 14:12:57;;;;;;;4.55;1.77;;;;;;;;;;5034915;28;20041;-68
2021/12/08 14:15:23;;;;;;;3.38;1.20;;;;;;;;;;5029834;28;20077;-69
2021/12/08 14:17:54;;;;;;;11.80;2.00;;;;;;;;;;5032435;28;20565;-69
2021/12/08 14:20:31;;;;;;;6.20;1.70;;;;;;;;;;5032975;28;20058;-69
2021/12/08 14:23:02;;;;;;;2.97;1.92;;;;;;;;;;5031991;28;20051;-69
2021/12/08 14:25:32;;;;;;;5.75;2.25;;;;;;;;;;5023815;28;20321;-70
2021/12/08 14:28:00;;;;;;;8.02;2.15;;;;;;;;;;5055262;28;20024;-69
2021/12/08 14:30:25;;;;;;;8.88;2.03;;;;;;;;;;5035755;28;20047;-71
2021/12/08 14:33:04;;;;;;;5.68;1.98;;;;;;;;;;5035776;28;20064;-70
2021/12/08 14:35:30;;;;;;;10.75;2.72;;;;;;;;;;5036489;28;20461;-71
2021/12/08 14:38:00;;;;;;;10.38;2.50;;;;;;;;;;5021418;28;20029;-70
2021/12/08 14:40:25;;;;;;;8.55;2.38;;;;;;;;;;5051011;28;20036;-71
2021/12/08 14:42:56;;;;;;;6.38;1.75;;;;;;;;;;5034200;28;22025;-70
2021/12/08 14:45:25;;;;;;;5.55;1.98;;;;;;;;;;5035166;28;20039;-71
2021/12/08 14:48:03;;;;;;;9.57;2.50;;;;;;;;;;5052909;28;20096;-73
2021/12/08 14:50:31;;;;;;;8.10;2.15;;;;;;;;;;5035417;28;20151;-72
2021/12/08 14:53:05;;;;;;;9.90;1.85;;;;;;;;;;5035136;28;20110;-72
2021/12/08 14:55:34;;;;;;;6.45;3.08;;;;;;;;;;5033547;28;20930;-71
2021/12/08 14:58:01;;;;;;;7.07;1.92;;;;;;;;;;5031402;28;20036;-69
2021/12/08 15:00:32;;;;;;;6.35;1.98;;;;;;;;;;5035063;28;20039;-71
2021/12/08 15:03:11;;;;;;;7.40;2.22;;;;;;;;;;5037576;28;21082;-74
2021/12/08 15:05:37;;;;;;;7.43;1.73;;;;;;;;;;5052073;28;20508;-72
2021/12/08 15:08:07;;;;;;;11.10;2.40;;;;;;;;;;5020097;28;20032;-70
2021/12/08 15:10:37;;;;;;;3.83;1.85;;;;;;;;;;5038730;28;20165;-71
2021/12/08 15:13:13;;;;;;;7.05;2.33;;;;;;;;;;5037844;28;20156;-71
2021/12/08 15:15:42;;;;;;;11.20;2.20;;;;;;;;;;5033384;28;20056;-73
2021/12/08 15:18:09;;;;;;;5.85;1.67;;;;;;;;;;5033804;28;20757;-72
2021/12/08 15:20:38;;;;;;;5.60;1.98;;;;;;;;;;5016350;28;20067;-71
2021/12/08 15:23:11;;;;;;;4.88;1.88;;;;;;;;;;5036454;28;21490;-72
2021/12/08 15:25:39;;;;;;;6.70;2.00;;;;;;;;;;5036529;28;20043;-72
2021/12/08 15:28:09;;;;;;;3.70;1.77;;;;;;;;;;5048606;28;20024;-72
2021/12/08 15:30:34;;;;;;;1.63;1.52;;;;;;;;;;5035702;28;20051;-71
2021/12/08 15:33:04;;;;;;;8.43;2.55;;;;;;;;;;5040277;28;20020;-71
2021/12/08 15:35:32;;;;;;;9.23;2.20;;;;;;;;;;5036190;28;20055;-69
2021/12/08 15:38:03;;;;;;;10.32;2.30;;;;;;;;;;5043356;28;20032;-71
2021/12/08 15:40:37;;;;;;;6.47;2.08;;;;;;;;;;5039608;28;20116;-69
2021/12/08 15:43:10;;;;;;;10.90;1.80;;;;;;;;;;5040659;28;20033;-70
2021/12/08 15:45:40;;;;;;;6.97;2.42;;;;;;;;;;5032461;28;20043;-72
2021/12/08 15:48:14;;;;;;;3.47;1.80;;;;;;;;;;5035361;28;20044;-74
2021/12/08 15:50:48;;;;;;;7.85;1.83;;;;;;;;;;5034943;28;20058;-70
2021/12/08 15:53:24;;;;;;;5.43;2.27;;;;;;;;;;5033189;28;20242;-70
2021/12/08 15:56:02;;;;;;;3.55;1.73;;;;;;;;;;5036666;28;20311;-71
2021/12/08 15:58:40;;;;;;;6.32;2.38;;;;;;;;;;5049856;28;20037;-73
2021/12/08 16:01:08;;;;;;;11.55;2.00;;;;;;;;;;5034797;28;20799;-70
2021/12/08 16:03:49;;;;;;;6.07;2.00;;;;;;;;;;5041168;28;20020;-73
2021/12/08 16:06:26;;;;;;;2.95;1.60;;;;;;;;;;5034257;28;20163;-72
2021/12/08 16:08:58;;;;;;;4.10;1.73;;;;;;;;;;5038235;28;21976;-75
2021/12/08 16:11:27;;;;;;;2.92;1.90;;;;;;;;;;5035301;28;20040;-71